Time;durP1;ratioP1;P1;durP2;ratioP2;P2;SDS_P1;SDS_P2;PMS_P1;PMS_P2;Temp;Humidity;BMP_temperature;BMP_pressure;BME280_temperature;BME280_humidity;BME280_pressure;Samples;Min_cycle;Max_cycle;Signal;HPM_P1;HPM_P2
2023/04/23 00:03:13;;;;;;;7.73;5.20;;;;;;;15.38;52.75;98922.66;10381900;28;20926;-41
2023/04/23 00:08:17;;;;;;;6.70;5.13;;;;;;;14.77;54.01;98939.03;10387042;28;20279;-41
2023/04/23 00:13:19;;;;;;;8.07;4.90;;;;;;;15.99;51.10;98936.59;10389061;28;20231;-41
2023/04/23 00:18:21;;;;;;;5.90;5.13;;;;;;;16.49;50.73;98966.66;10388277;28;20681;-40
2023/04/23 00:23:23;;;;;;;7.40;5.37;;;;;;;14.62;53.26;98881.31;10388046;28;20244;-41
2023/04/23 00:28:24;;;;;;;5.90;5.30;;;;;;;14.87;54.07;98951.16;10384235;28;20240;-41
2023/04/23 00:33:26;;;;;;;11.30;7.00;;;;;;;13.48;57.26;98899.88;10388576;28;20229;-41
2023/04/23 00:38:28;;;;;;;7.90;5.80;;;;;;;14.42;55.73;98986.63;10410836;23;20232;-37
2023/04/23 00:43:30;;;;;;;6.43;5.77;;;;;;;14.01;56.12;98975.56;10438109;28;20767;-37
2023/04/23 00:48:33;;;;;;;9.13;6.00;;;;;;;13.33;58.02;98945.13;10430150;28;20240;-37
2023/04/23 00:53:35;;;;;;;8.40;6.23;;;;;;;13.68;57.45;98987.53;10431370;28;20232;-38
2023/04/23 00:58:37;;;;;;;7.53;5.80;;;;;;;13.71;56.80;98957.50;10431020;28;20243;-38
2023/04/23 01:03:41;;;;;;;6.97;6.27;;;;;;;14.27;55.95;98962.81;10428007;28;20232;-37
2023/04/23 01:08:44;;;;;;;7.17;6.47;;;;;;;15.05;54.14;99002.25;10433884;28;20258;-37
2023/04/23 01:13:46;;;;;;;9.43;6.10;;;;;;;14.40;55.41;98979.59;10436199;28;20738;-38
2023/04/23 01:18:47;;;;;;;7.17;6.33;;;;;;;14.19;55.79;98996.25;10434947;28;20240;-37
2023/04/23 01:23:49;;;;;;;8.27;7.27;;;;;;;13.95;56.47;99001.50;10430655;28;20588;-37
2023/04/23 01:28:52;;;;;;;7.00;6.30;;;;;;;15.13;54.10;99017.22;10427914;28;20235;-37
2023/04/23 01:33:54;;;;;;;7.87;6.87;;;;;;;15.07;54.32;99028.97;10424916;28;20623;-38
2023/04/23 01:38:56;;;;;;;10.60;7.20;;;;;;;15.13;53.60;99033.38;10428318;28;20248;-38
2023/04/23 01:43:59;;;;;;;9.20;8.20;;;;;;;14.43;55.77;99009.81;10431530;28;20231;-37
2023/04/23 01:49:01;;;;;;;11.40;8.03;;;;;;;13.11;59.41;98993.06;10430832;28;20240;-37
2023/04/23 01:54:02;;;;;;;11.27;9.47;;;;;;;13.83;58.27;99047.16;10426219;28;20227;-37
2023/04/23 01:59:06;;;;;;;11.30;9.60;;;;;;;13.29;59.76;99057.59;10428943;28;20242;-37
2023/04/23 02:04:08;;;;;;;11.50;10.20;;;;;;;14.04;56.95;99039.66;10425634;28;20231;-38
2023/04/23 02:09:10;;;;;;;11.03;9.73;;;;;;;15.97;53.91;99145.63;10419240;28;20231;-37
2023/04/23 02:14:12;;;;;;;9.70;8.70;;;;;;;15.43;53.99;99071.03;10430143;28;20228;-37
2023/04/23 02:19:15;;;;;;;10.83;8.03;;;;;;;14.21;56.92;99083.75;10428994;28;20243;-37
2023/04/23 02:24:17;;;;;;;10.33;7.93;;;;;;;15.54;54.22;99117.94;10420150;28;20227;-38
2023/04/23 02:29:19;;;;;;;7.57;6.50;;;;;;;14.86;54.79;99068.03;10432520;28;20739;-37
2023/04/23 02:34:21;;;;;;;7.90;5.60;;;;;;;13.37;58.52;99059.16;10419797;28;20223;-38
2023/04/23 02:39:23;;;;;;;11.23;6.03;;;;;;;14.37;55.67;99084.19;10421075;28;20240;-38
2023/04/23 02:44:25;;;;;;;6.13;5.30;;;;;;;14.74;54.60;99086.81;10427240;28;20705;-38
2023/04/23 02:49:26;;;;;;;7.67;5.50;;;;;;;14.31;55.22;99080.53;10433997;28;20254;-38
2023/04/23 02:54:28;;;;;;;9.97;6.07;;;;;;;13.71;56.70;99037.34;10432372;28;20693;-38
2023/04/23 02:59:30;;;;;;;6.80;5.80;;;;;;;15.51;52.80;99132.69;10419820;28;20231;-38
2023/04/23 03:04:32;;;;;;;6.93;6.13;;;;;;;15.72;53.08;99149.38;10410484;28;20223;-38
2023/04/23 03:09:33;;;;;;;8.17;6.53;;;;;;;13.95;55.61;99044.53;10398487;28;20246;-38
2023/04/23 03:14:36;;;;;;;8.00;5.87;;;;;;;14.33;55.61;99102.66;10424069;28;20249;-37
2023/04/23 03:19:37;;;;;;;7.73;5.70;;;;;;;12.96;58.82;99076.63;10420058;28;20228;-37
2023/04/23 03:24:39;;;;;;;10.20;6.17;;;;;;;13.46;58.00;99135.81;10414659;28;20236;-37
2023/04/23 03:29:41;;;;;;;6.80;5.70;;;;;;;13.77;56.92;99103.69;10419637;28;20224;-37
2023/04/23 03:34:43;;;;;;;5.70;5.10;;;;;;;13.78;56.08;99118.75;10417698;28;20224;-37
2023/04/23 03:39:45;;;;;;;7.50;5.70;;;;;;;14.53;55.10;99136.59;10421449;28;20262;-37
2023/04/23 03:44:46;;;;;;;7.00;4.70;;;;;;;13.37;55.79;99058.34;10434422;28;20240;-37
2023/04/23 03:49:48;;;;;;;6.47;4.80;;;;;;;15.10;53.11;99155.94;10419000;28;20235;-37
2023/04/23 03:54:50;;;;;;;4.67;4.03;;;;;;;15.14;52.38;99161.69;10436960;28;20267;-37
2023/04/23 03:59:51;;;;;;;5.20;4.70;;;;;;;14.20;53.67;99092.06;10433051;28;20232;-37
2023/04/23 04:04:53;;;;;;;5.40;4.43;;;;;;;15.05;52.48;99171.97;10427363;28;20230;-37
2023/04/23 04:09:56;;;;;;;5.17;4.67;;;;;;;16.07;51.37;99218.72;10430156;28;20634;-37
2023/04/23 04:14:58;;;;;;;6.83;5.00;;;;;;;14.99;53.10;99124.38;10435347;28;20332;-37
2023/04/23 04:19:59;;;;;;;7.97;5.50;;;;;;;14.03;55.42;99087.25;10433958;28;20228;-38
2023/04/23 04:25:01;;;;;;;7.03;5.70;;;;;;;14.73;54.28;99136.34;10436612;28;20331;-36
2023/04/23 04:30:04;;;;;;;8.87;6.40;;;;;;;14.21;55.94;99107.97;10436734;28;20238;-37
2023/04/23 04:35:07;;;;;;;7.13;6.20;;;;;;;14.46;55.26;99130.44;10433195;28;20313;-37
2023/04/23 04:40:10;;;;;;;7.67;6.37;;;;;;;14.64;55.12;99126.91;10429996;28;20228;-37
2023/04/23 04:45:12;;;;;;;7.57;6.77;;;;;;;14.88;54.03;99139.47;10427291;28;20225;-37
2023/04/23 04:50:14;;;;;;;7.90;6.67;;;;;;;13.98;56.34;99095.16;10431169;28;20237;-37
2023/04/23 04:55:15;;;;;;;8.47;7.57;;;;;;;14.47;55.36;99135.63;10426429;28;21004;-37
2023/04/23 05:00:28;;;;;;;8.40;7.40;;;;;;;13.68;56.86;99100.44;10437776;28;20626;-37
2023/04/23 05:05:32;;;;;;;8.73;7.37;;;;;;;13.28;58.36;99101.63;10431585;28;20228;-37
2023/04/23 05:10:33;;;;;;;8.57;7.30;;;;;;;14.11;56.84;99133.78;10424757;28;20232;-37
2023/04/23 05:15:35;;;;;;;8.83;7.97;;;;;;;14.09;56.40;99123.22;10440943;28;20235;-37
2023/04/23 05:20:37;;;;;;;9.40;7.57;;;;;;;13.14;58.56;99081.22;10432228;28;20752;-37
2023/04/23 05:25:39;;;;;;;8.50;7.20;;;;;;;13.26;58.17;99089.41;10430568;28;20235;-37
2023/04/23 05:30:41;;;;;;;7.30;6.27;;;;;;;13.44;58.10;99102.09;10435833;28;20335;-36
2023/04/23 05:35:43;;;;;;;6.90;6.20;;;;;;;14.47;55.00;99180.56;10428060;28;20278;-37
2023/04/23 05:40:45;;;;;;;6.73;5.17;;;;;;;13.22;57.53;99075.59;10433873;28;20236;-36
2023/04/23 05:45:47;;;;;;;6.43;4.90;;;;;;;13.52;56.94;99107.22;10432022;28;20243;-36
2023/04/23 05:50:48;;;;;;;5.50;4.60;;;;;;;14.15;55.84;99156.47;10429576;28;20242;-37
2023/04/23 05:55:50;;;;;;;4.63;4.23;;;;;;;13.96;56.16;99142.97;10436148;28;20840;-37
2023/04/23 06:00:52;;;;;;;4.57;4.07;;;;;;;14.32;55.61;99183.63;10426144;28;20240;-36
2023/04/23 06:05:54;;;;;;;4.50;3.83;;;;;;;14.49;55.10;99208.91;10435854;28;20247;-37
2023/04/23 06:10:56;;;;;;;4.03;3.63;;;;;;;13.87;55.51;99135.41;10430781;28;20270;-37
2023/04/23 06:15:58;;;;;;;3.87;3.47;;;;;;;13.37;56.83;99120.97;10433184;28;20228;-37
2023/04/23 06:21:03;;;;;;;3.70;3.40;;;;;;;14.72;54.45;99221.69;10420197;28;20244;-37
2023/04/23 06:26:05;;;;;;;3.00;2.77;;;;;;;14.73;54.55;99222.53;10416097;28;20229;-37
2023/04/23 06:31:07;;;;;;;4.30;3.10;;;;;;;14.34;55.06;99176.13;10430498;28;20339;-37
2023/04/23 06:36:09;;;;;;;3.10;2.87;;;;;;;14.56;53.92;99153.13;10423235;28;20307;-37
2023/04/23 06:41:12;;;;;;;4.03;2.93;;;;;;;14.45;54.07;99135.03;10422967;28;20228;-37
2023/04/23 06:46:14;;;;;;;3.23;2.60;;;;;;;14.97;53.06;99133.78;10418805;28;20263;-38
2023/04/23 06:51:16;;;;;;;2.90;2.60;;;;;;;15.47;52.40;99154.94;10423012;28;20232;-37
2023/04/23 06:56:17;;;;;;;3.00;2.60;;;;;;;14.11;53.85;99032.34;10426266;28;20568;-37
2023/04/23 07:01:19;;;;;;;2.67;2.43;;;;;;;16.64;49.76;99137.06;10427291;28;20907;-37
2023/04/23 07:06:21;;;;;;;2.90;2.63;;;;;;;14.72;53.60;99022.41;10428015;28;20710;-37
2023/04/23 07:11:23;;;;;;;2.67;2.43;;;;;;;15.05;53.62;99037.25;10426959;28;20723;-38
2023/04/23 07:16:28;;;;;;;2.50;2.30;;;;;;;15.72;52.44;99056.88;10430573;28;20208;-38
2023/04/23 07:21:31;;;;;;;2.70;2.50;;;;;;;14.89;53.56;99011.81;10432962;28;20231;-37
2023/04/23 07:26:34;;;;;;;4.87;2.50;;;;;;;15.49;52.14;99020.75;10432827;28;20244;-37
2023/04/23 07:31:38;;;;;;;3.57;2.90;;;;;;;16.32;51.33;99078.13;10441052;28;20682;-37
2023/04/23 07:36:39;;;;;;;4.07;3.00;;;;;;;16.78;50.78;99016.84;10428861;28;20235;-38
2023/04/23 07:41:41;;;;;;;4.13;2.53;;;;;;;15.12;52.08;98905.94;10427444;28;20247;-37
2023/04/23 07:46:43;;;;;;;2.83;2.20;;;;;;;15.83;51.64;98991.31;10438642;28;20243;-38
2023/04/23 07:51:47;;;;;;;2.50;2.30;;;;;;;16.38;50.60;98988.09;10433810;28;20682;-38
2023/04/23 07:56:49;;;;;;;2.33;2.13;;;;;;;17.32;49.14;99046.13;10435918;28;20662;-38
2023/04/23 08:01:50;;;;;;;2.63;2.43;;;;;;;17.35;49.60;99010.47;10431825;28;20240;-38
2023/04/23 08:06:52;;;;;;;3.07;2.50;;;;;;;16.74;49.02;98880.63;10431017;28;20276;-38
2023/04/23 08:11:54;;;;;;;3.23;2.93;;;;;;;17.34;48.75;98932.31;10440009;28;20860;-38
2023/04/23 08:16:55;;;;;;;3.73;2.90;;;;;;;17.44;48.26;98910.81;10432727;28;20227;-38
2023/04/23 08:21:57;;;;;;;3.07;2.47;;;;;;;15.75;50.24;98854.94;10430265;28;20741;-38
2023/04/23 08:26:59;;;;;;;2.70;2.50;;;;;;;18.15;46.37;98911.88;10436961;28;20228;-38
2023/04/23 08:32:01;;;;;;;3.40;2.90;;;;;;;18.00;46.54;98889.03;10426161;28;20246;-38
2023/04/23 08:37:03;;;;;;;4.40;3.27;;;;;;;19.08;44.97;98921.59;10426049;28;20537;-38
2023/04/23 08:42:30;;;;;;;3.07;2.73;;;;;;;18.95;45.07;98871.41;10436566;28;20235;-38
2023/04/23 08:47:33;;;;;;;3.30;2.70;;;;;;;17.38;45.88;98846.94;10430778;28;20240;-37
2023/04/23 08:52:39;;;;;;;2.93;2.50;;;;;;;17.83;45.63;98794.41;10434118;28;20327;-38
2023/04/23 08:57:41;;;;;;;3.50;2.53;;;;;;;17.92;44.99;98792.88;10433414;28;20239;-38
2023/04/23 09:02:45;;;;;;;3.87;2.50;;;;;;;17.38;45.19;98821.75;10430126;28;20236;-38
2023/04/23 09:07:47;;;;;;;3.73;3.20;;;;;;;18.13;44.88;98803.84;10435832;28;20242;-38
2023/04/23 09:12:49;;;;;;;3.40;2.90;;;;;;;18.91;43.66;98810.63;10429031;28;20552;-38
2023/04/23 09:17:51;;;;;;;3.53;2.53;;;;;;;18.13;44.43;98797.63;10436030;28;20232;-38
2023/04/23 09:22:53;;;;;;;2.87;2.20;;;;;;;17.73;45.10;98716.69;10427182;28;20285;-38
2023/04/23 09:27:57;;;;;;;3.40;2.70;;;;;;;19.84;43.14;98785.47;10439081;28;20242;-38
2023/04/23 09:32:59;;;;;;;3.20;2.27;;;;;;;18.28;43.34;98659.66;10428333;28;20514;-37
2023/04/23 09:38:06;;;;;;;2.60;2.33;;;;;;;18.07;44.26;98664.97;10432741;28;20232;-38
2023/04/23 09:43:10;;;;;;;2.17;2.03;;;;;;;17.88;43.41;98648.34;10433973;28;20585;-37
2023/04/23 09:48:11;;;;;;;2.53;2.33;;;;;;;18.44;43.27;98707.44;10430020;28;20232;-38
2023/04/23 09:53:13;;;;;;;4.90;2.53;;;;;;;18.97;41.50;98676.78;10434715;28;20258;-38
2023/04/23 09:58:15;;;;;;;2.73;2.10;;;;;;;18.09;44.02;98708.00;10428358;28;20232;-38
2023/04/23 10:03:26;;;;;;;2.40;2.20;;;;;;;19.93;41.70;98674.41;10438543;28;20224;-38
2023/04/23 10:08:30;;;;;;;2.87;1.70;;;;;;;18.27;41.82;98677.78;10431605;28;20282;-38
2023/04/23 10:13:35;;;;;;;2.17;1.97;;;;;;;17.66;44.06;98680.06;10427959;28;20251;-38
2023/04/23 10:18:37;;;;;;;2.23;2.00;;;;;;;18.76;43.52;98663.13;10432463;28;20794;-38
2023/04/23 10:23:43;;;;;;;2.40;1.60;;;;;;;17.94;44.60;98667.31;10431481;28;20520;-38
2023/04/23 10:28:47;;;;;;;3.10;1.97;;;;;;;20.34;40.65;98651.81;10428871;28;20323;-38
2023/04/23 10:33:49;;;;;;;2.40;1.97;;;;;;;18.53;42.62;98648.16;10430106;28;20228;-38
2023/04/23 10:39:03;;;;;;;2.00;1.90;;;;;;;19.33;40.73;98625.31;10431487;28;20239;-38
2023/04/23 10:44:05;;;;;;;1.83;1.70;;;;;;;19.55;40.83;98604.19;10420524;28;20333;-38
2023/04/23 10:49:15;;;;;;;1.90;1.70;;;;;;;19.89;39.73;98587.28;10423507;28;20257;-38
2023/04/23 10:54:18;;;;;;;5.53;1.60;;;;;;;19.58;40.83;98586.53;10428588;28;20238;-38
2023/04/23 10:59:21;;;;;;;2.10;1.90;;;;;;;18.42;40.83;98536.25;10425592;28;20343;-38
2023/04/23 11:06:46;;;;;;;2.50;1.87;;;;;;;15.90;45.81;98729.50;10433341;28;20835;-67
2023/04/23 11:11:47;;;;;;;2.00;1.80;;;;;;;17.12;45.07;98621.44;10364608;28;20727;-66
2023/04/23 11:16:49;;;;;;;1.93;1.67;;;;;;;16.14;44.21;98630.28;10353057;28;20245;-67
2023/04/23 11:22:04;;;;;;;2.33;1.50;;;;;;;16.89;43.20;98680.09;10354352;28;20259;-67
2023/04/23 11:27:09;;;;;;;2.13;1.60;;;;;;;15.70;43.56;98647.19;10355438;28;20259;-66
2023/04/23 11:32:13;;;;;;;1.73;1.63;;;;;;;17.12;43.30;98616.88;10355545;28;20233;-66
2023/04/23 11:37:16;;;;;;;2.83;1.90;;;;;;;17.57;42.77;98595.06;10348442;28;20734;-69
2023/04/23 11:42:21;;;;;;;1.97;1.87;;;;;;;17.53;42.70;98563.13;10356083;28;20229;-69
2023/04/23 11:47:25;;;;;;;1.93;1.73;;;;;;;16.93;43.94;98572.34;10354448;28;20233;-69
2023/04/23 11:52:26;;;;;;;2.10;2.00;;;;;;;16.68;42.49;98562.09;10352744;28;20308;-68
2023/04/23 11:57:28;;;;;;;2.38;1.70;;;;;;;18.45;41.76;98579.03;10356936;28;20240;-66
2023/04/23 12:02:29;;;;;;;1.67;1.37;;;;;;;17.68;42.36;98537.25;10353939;28;20240;-66
2023/04/23 12:07:32;;;;;;;1.90;1.80;;;;;;;16.69;43.02;98532.13;10354580;28;20967;-68
2023/04/23 12:12:34;;;;;;;1.70;1.60;;;;;;;17.53;42.28;98563.13;10352879;28;20329;-69
2023/04/23 12:17:35;;;;;;;1.80;1.70;;;;;;;17.66;42.12;98561.06;10328996;28;20241;-67
2023/04/23 12:22:37;;;;;;;2.03;1.83;;;;;;;18.19;42.24;98551.03;10328271;28;20591;-67
2023/04/23 12:27:41;;;;;;;3.13;2.15;;;;;;;18.25;40.58;98466.06;10322492;28;20590;-69
2023/04/23 12:32:43;;;;;;;1.80;1.70;;;;;;;18.31;41.03;98469.63;10327379;28;20234;-69
2023/04/23 12:37:45;;;;;;;1.60;1.50;;;;;;;17.75;40.81;98458.56;10328413;28;20250;-67
2023/04/23 12:42:46;;;;;;;1.63;1.53;;;;;;;19.25;39.52;98473.97;10325506;28;20372;-67
2023/04/23 12:47:48;;;;;;;1.60;1.50;;;;;;;17.81;40.14;98515.16;10330093;28;20688;-67
2023/04/23 12:52:49;;;;;;;2.00;1.80;;;;;;;17.59;39.90;98468.50;10332723;28;20385;-69
2023/04/23 12:57:51;;;;;;;1.85;1.67;;;;;;;19.10;39.18;98455.88;10326717;28;20238;-67
2023/04/23 13:02:54;;;;;;;3.05;1.77;;;;;;;19.11;38.33;98422.22;10317591;28;20242;-67
2023/04/23 13:07:56;;;;;;;1.65;1.55;;;;;;;18.87;39.17;98425.47;10326597;28;20341;-69
2023/04/23 13:12:58;;;;;;;2.15;1.35;;;;;;;17.96;40.05;98392.63;10300191;28;20265;-68
2023/04/23 13:17:59;;;;;;;1.95;1.67;;;;;;;19.44;39.07;98382.00;10279658;28;20233;-68
2023/04/23 13:23:01;;;;;;;4.25;1.70;;;;;;;18.87;39.57;98394.88;10283376;28;20230;-69
2023/04/23 13:28:03;;;;;;;1.25;1.20;;;;;;;19.29;39.30;98372.03;10283846;28;20262;-66
2023/04/23 13:33:05;;;;;;;1.65;1.50;;;;;;;18.77;38.69;98277.28;10285674;28;20230;-68
2023/04/23 13:38:06;;;;;;;1.42;1.35;;;;;;;18.83;39.20;98352.06;10281918;28;20313;-68
2023/04/23 13:43:09;;;;;;;1.60;1.50;;;;;;;17.49;40.28;98285.38;10276411;28;20325;-68
2023/04/23 13:48:10;;;;;;;1.20;1.20;;;;;;;18.85;38.48;98321.97;10286750;28;20246;-68
2023/04/23 13:53:12;;;;;;;1.60;1.50;;;;;;;18.78;39.42;98307.91;10291996;28;20228;-68
2023/04/23 13:58:14;;;;;;;1.55;1.30;;;;;;;19.09;39.56;98289.66;10285786;28;20659;-68
2023/04/23 14:03:15;;;;;;;2.17;1.05;;;;;;;17.26;40.70;98276.66;10287439;28;20828;-68
2023/04/23 14:08:17;;;;;;;1.43;1.33;;;;;;;18.71;39.67;98296.53;10280013;28;20539;-68
2023/04/23 14:13:19;;;;;;;1.50;1.40;;;;;;;19.02;39.75;98251.22;10279978;28;20230;-68
2023/04/23 14:18:21;;;;;;;1.50;1.40;;;;;;;18.30;40.58;98304.72;10284909;28;20593;-68
2023/04/23 14:23:24;;;;;;;1.63;1.53;;;;;;;18.16;39.74;98285.47;10277449;28;20260;-68
2023/04/23 14:28:33;;;;;;;1.45;1.38;;;;;;;19.32;39.03;98233.97;10285307;28;20237;-67
2023/04/23 14:33:34;;;;;;;1.23;1.13;;;;;;;19.25;39.55;98213.66;10280866;28;20296;-69
2023/04/23 14:38:36;;;;;;;1.47;1.20;;;;;;;19.33;39.43;98197.63;10282576;28;20717;-68
2023/04/23 14:43:38;;;;;;;1.93;1.43;;;;;;;18.52;39.68;98199.59;10283765;28;20230;-68
2023/04/23 14:48:40;;;;;;;3.38;1.48;;;;;;;18.88;40.01;98195.94;10282544;28;20234;-68
2023/04/23 14:53:41;;;;;;;1.70;1.60;;;;;;;19.30;40.33;98176.50;10278421;28;20756;-68
2023/04/23 14:58:43;;;;;;;2.50;1.70;;;;;;;19.00;39.11;98177.50;10280019;28;20293;-68
2023/04/23 15:03:45;;;;;;;1.75;1.50;;;;;;;17.39;40.55;98125.81;10281780;28;20807;-68
2023/04/23 15:08:47;;;;;;;2.20;1.33;;;;;;;18.20;40.22;98165.56;10285359;28;20714;-68
2023/04/23 15:13:56;;;;;;;1.80;1.70;;;;;;;17.79;43.99;98191.84;10278147;28;20238;-68
2023/04/23 15:19:04;;;;;;;3.23;1.50;;;;;;;16.47;48.23;98270.31;10277050;28;20281;-68
2023/04/23 15:24:06;;;;;;;1.77;1.67;;;;;;;16.02;51.97;98347.09;10281450;28;20273;-69
2023/04/23 15:29:08;;;;;;;2.93;1.97;;;;;;;13.60;55.42;98252.19;10280122;28;20260;-68
2023/04/23 15:34:10;;;;;;;2.10;1.93;;;;;;;14.11;53.93;98332.16;10274925;28;20238;-68
2023/04/23 15:39:12;;;;;;;2.27;1.83;;;;;;;14.77;52.88;98368.16;10284214;28;20234;-68
2023/04/23 15:44:14;;;;;;;1.97;1.60;;;;;;;16.96;49.77;98328.69;10279455;28;20241;-68
2023/04/23 15:49:16;;;;;;;2.00;1.90;;;;;;;17.55;47.98;98241.03;10284467;28;20245;-68
2023/04/23 15:54:17;;;;;;;2.57;1.60;;;;;;;16.85;48.35;98205.41;10288625;28;20616;-68
2023/04/23 15:59:19;;;;;;;1.87;1.77;;;;;;;18.08;48.58;98255.19;10281885;28;20266;-68
2023/04/23 16:04:21;;;;;;;3.90;2.17;;;;;;;16.10;51.40;98275.69;10309094;28;20248;-68
2023/04/23 16:09:23;;;;;;;6.40;2.23;;;;;;;16.04;52.26;98318.81;10328433;28;20589;-68
2023/04/23 16:14:24;;;;;;;2.30;2.10;;;;;;;17.21;50.75;98273.09;10329597;28;20245;-67
2023/04/23 16:19:27;;;;;;;2.13;1.93;;;;;;;15.68;52.83;98334.63;10328556;28;20241;-68
2023/04/23 16:24:28;;;;;;;4.87;2.33;;;;;;;15.82;51.40;98309.94;10330073;28;20599;-68
2023/04/23 16:29:30;;;;;;;3.23;2.50;;;;;;;16.12;52.26;98365.28;10324106;28;20234;-68
2023/04/23 16:34:32;;;;;;;4.43;1.80;;;;;;;17.30;48.96;98291.25;10326539;28;20234;-68
2023/04/23 16:39:34;;;;;;;2.60;1.97;;;;;;;19.41;46.64;98302.00;10325100;28;20779;-68
2023/04/23 16:44:36;;;;;;;4.23;2.50;;;;;;;16.69;51.50;98402.50;10325660;28;20237;-68
2023/04/23 16:49:38;;;;;;;6.67;2.23;;;;;;;16.57;52.51;98442.38;10323614;28;20237;-67
2023/04/23 16:54:39;;;;;;;2.67;2.00;;;;;;;15.93;53.49;98408.78;10333625;28;20315;-68
2023/04/23 16:59:41;;;;;;;3.63;2.20;;;;;;;18.54;48.28;98286.00;10323705;28;20240;-68
2023/04/23 17:04:43;;;;;;;2.80;1.90;;;;;;;17.92;49.39;98300.34;10330899;28;20236;-68
2023/04/23 17:09:46;;;;;;;4.90;2.07;;;;;;;17.36;50.44;98375.91;10328474;28;20899;-68
2023/04/23 17:14:47;;;;;;;2.30;2.10;;;;;;;16.03;53.19;98400.81;10327329;28;20237;-68
2023/04/23 17:19:49;;;;;;;2.30;2.10;;;;;;;15.67;54.17;98388.81;10323127;28;20264;-68
2023/04/23 17:24:51;;;;;;;17.73;14.77;;;;;;;16.39;53.33;98349.88;10324478;28;20763;-68
2023/04/23 17:29:53;;;;;;;22.47;18.47;;;;;;;16.66;52.62;98313.09;10322541;28;20261;-67
2023/04/23 17:34:54;;;;;;;5.80;5.20;;;;;;;17.41;50.98;98297.53;10320852;28;20233;-68
2023/04/23 17:40:10;;;;;;;3.37;2.90;;;;;;;16.24;52.13;98330.84;10334356;28;20615;-68
2023/04/23 17:45:12;;;;;;;5.17;2.20;;;;;;;17.50;50.03;98346.50;10319621;28;20230;-68
2023/04/23 17:50:13;;;;;;;2.23;2.03;;;;;;;16.42;50.13;98370.16;10325159;28;20724;-68
2023/04/23 17:55:15;;;;;;;2.10;1.90;;;;;;;14.90;52.10;98468.59;10327162;28;20637;-68
2023/04/23 18:00:18;;;;;;;2.93;2.00;;;;;;;16.06;50.53;98400.31;10327372;28;20236;-68
2023/04/23 18:05:20;;;;;;;2.17;1.90;;;;;;;16.51;49.96;98401.00;10325449;28;20243;-68
2023/04/23 18:10:21;;;;;;;2.43;1.97;;;;;;;15.00;51.23;98443.66;10325019;28;20292;-68
2023/04/23 18:15:24;;;;;;;2.50;2.00;;;;;;;15.46;50.79;98476.69;10327981;28;20316;-68
2023/04/23 18:20:26;;;;;;;2.43;1.53;;;;;;;15.85;50.59;98482.88;10324252;28;20269;-68
2023/04/23 18:25:29;;;;;;;2.43;1.93;;;;;;;15.39;50.69;98508.41;10329220;28;20225;-68
2023/04/23 18:30:30;;;;;;;6.83;3.20;;;;;;;14.85;51.55;98482.78;10317909;28;20234;-68
2023/04/23 18:35:32;;;;;;;2.00;1.80;;;;;;;13.70;53.80;98463.91;10331588;28;20244;-68
2023/04/23 18:40:33;;;;;;;1.77;1.67;;;;;;;14.11;53.56;98564.28;10319405;28;20232;-68
2023/04/23 18:45:35;;;;;;;2.17;1.70;;;;;;;15.46;51.63;98541.38;10319631;28;20234;-68
2023/04/23 18:50:48;;;;;;;2.30;2.10;;;;;;;13.79;53.41;98515.44;10326110;28;20238;-68
2023/04/23 18:55:50;;;;;;;2.57;1.80;;;;;;;13.85;54.35;98570.94;10328645;28;20241;-68
2023/04/23 19:00:51;;;;;;;1.70;1.60;;;;;;;12.62;55.20;98516.94;10327631;28;20238;-68
2023/04/23 19:05:53;;;;;;;3.27;1.87;;;;;;;12.27;57.06;98598.09;10320099;28;20650;-67
2023/04/23 19:10:55;;;;;;;2.40;2.13;;;;;;;12.63;57.81;98648.22;10317179;28;20316;-68
2023/04/23 19:15:57;;;;;;;2.13;1.70;;;;;;;13.02;55.90;98632.63;10321019;28;20683;-68
2023/04/23 19:20:58;;;;;;;3.57;1.80;;;;;;;11.89;59.41;98601.78;10328128;28;20980;-68
2023/04/23 19:26:02;;;;;;;1.70;1.60;;;;;;;11.50;59.51;98572.44;10321896;28;20620;-67
2023/04/23 19:31:03;;;;;;;2.50;2.10;;;;;;;13.46;55.86;98645.84;10324387;28;20580;-68
2023/04/23 19:36:05;;;;;;;4.40;1.70;;;;;;;12.09;56.96;98602.41;10334931;28;20230;-68
2023/04/23 19:41:07;;;;;;;3.13;1.70;;;;;;;12.98;55.66;98650.25;10328924;28;20714;-68
2023/04/23 19:46:08;;;;;;;1.83;1.73;;;;;;;12.64;56.45;98663.28;10327518;28;20236;-68
2023/04/23 19:51:10;;;;;;;2.63;1.70;;;;;;;12.66;55.62;98634.38;10325970;28;20747;-68
2023/04/23 19:56:13;;;;;;;1.70;1.60;;;;;;;12.49;55.24;98623.44;10326395;28;20241;-68
2023/04/23 20:01:16;;;;;;;1.90;1.80;;;;;;;12.51;55.53;98640.13;10324591;28;20603;-68
2023/04/23 20:06:18;;;;;;;2.00;1.90;;;;;;;11.20;58.27;98604.41;10327928;28;20629;-68
2023/04/23 20:11:20;;;;;;;1.70;1.60;;;;;;;11.36;58.60;98654.78;10326205;28;20276;-68
2023/04/23 20:16:22;;;;;;;2.87;2.10;;;;;;;12.23;55.87;98671.97;10325167;28;20593;-68
2023/04/23 20:21:25;;;;;;;2.40;2.17;;;;;;;11.96;56.57;98689.16;10325541;28;20300;-67
2023/04/23 20:26:26;;;;;;;2.60;2.27;;;;;;;11.35;57.35;98663.03;10327727;28;20284;-67
2023/04/23 20:31:28;;;;;;;2.60;2.00;;;;;;;11.98;56.19;98727.28;10335986;28;20888;-67
2023/04/23 20:36:32;;;;;;;1.87;1.77;;;;;;;;;;10317474;28;20226;-68
2023/04/23 20:41:35;;;;;;;2.60;2.30;;;;;;;11.24;56.69;98689.47;10331593;28;20241;-68
2023/04/23 20:46:37;;;;;;;2.70;1.80;;;;;;;10.69;57.33;98673.84;10342354;28;20233;-68
2023/04/23 20:51:39;;;;;;;3.00;2.00;;;;;;;11.45;55.87;98731.13;10331335;28;20244;-67
2023/04/23 20:56:41;;;;;;;2.00;1.90;;;;;;;11.62;56.39;98749.38;10340343;28;20516;-68
2023/04/23 21:01:42;;;;;;;2.10;2.00;;;;;;;11.78;55.65;98762.28;10332502;28;20876;-68
2023/04/23 21:06:45;;;;;;;2.87;1.70;;;;;;;11.76;54.80;98750.13;10328940;28;20246;-68
2023/04/23 21:11:47;;;;;;;2.00;1.90;;;;;;;10.74;56.71;98728.59;10334433;28;20263;-68
2023/04/23 21:16:49;;;;;;;2.33;2.20;;;;;;;11.45;55.49;98776.69;10332339;28;20245;-68
2023/04/23 21:21:50;;;;;;;2.50;2.30;;;;;;;12.12;54.06;98764.72;10335219;28;20245;-68
2023/04/23 21:26:52;;;;;;;3.20;2.13;;;;;;;10.68;57.33;98724.88;10325778;28;20237;-68
2023/04/23 21:31:53;;;;;;;2.30;2.07;;;;;;;11.15;56.96;98755.00;10330535;28;20237;-68
2023/04/23 21:36:55;;;;;;;2.43;2.33;;;;;;;10.69;57.78;98729.22;10334115;28;20233;-68
2023/04/23 21:41:57;;;;;;;2.00;1.90;;;;;;;11.83;56.63;98768.84;10341928;28;20238;-68
2023/04/23 21:46:59;;;;;;;2.10;1.90;;;;;;;12.32;54.53;98791.38;10329968;28;20253;-68
2023/04/23 21:52:01;;;;;;;2.47;2.27;;;;;;;12.22;54.65;98777.63;10340835;28;20253;-67
2023/04/23 21:57:02;;;;;;;2.03;1.90;;;;;;;11.91;56.53;98784.66;10333961;28;20242;-68
2023/04/23 22:02:04;;;;;;;2.80;2.30;;;;;;;11.66;56.33;98782.78;10341311;28;20685;-67
2023/04/23 22:07:06;;;;;;;2.20;2.10;;;;;;;11.69;55.20;98752.84;10333859;28;20236;-67
2023/04/23 22:12:08;;;;;;;2.47;1.70;;;;;;;11.34;56.54;98787.25;10331211;28;20252;-68
2023/04/23 22:17:10;;;;;;;2.50;2.00;;;;;;;12.32;54.25;98775.28;10335998;28;20240;-68
2023/04/23 22:22:12;;;;;;;3.10;2.10;;;;;;;12.79;52.65;98791.75;10330295;28;20292;-68
2023/04/23 22:27:13;;;;;;;2.13;2.00;;;;;;;13.69;51.80;98843.19;10332477;28;20232;-68
2023/04/23 22:32:15;;;;;;;1.93;1.83;;;;;;;13.52;51.81;98797.31;10332264;28;20226;-68
2023/04/23 22:37:18;;;;;;;2.73;2.33;;;;;;;13.27;51.90;98772.16;10331178;28;20230;-68
2023/04/23 22:42:19;;;;;;;2.97;2.13;;;;;;;13.28;52.40;98768.47;10329407;28;20276;-68
2023/04/23 22:47:21;;;;;;;2.33;2.23;;;;;;;12.59;53.94;98753.56;10331279;28;20245;-68
2023/04/23 22:52:22;;;;;;;5.83;2.00;;;;;;;12.93;52.55;98763.69;10332401;28;20237;-68
2023/04/23 22:57:24;;;;;;;3.70;2.50;;;;;;;12.36;54.39;98752.31;10317108;28;20238;-68
2023/04/23 23:02:26;;;;;;;2.07;1.97;;;;;;;11.51;55.54;98734.03;10333743;28;20244;-68
2023/04/23 23:07:28;;;;;;;3.30;2.10;;;;;;;11.47;56.09;98744.31;10322732;28;20240;-68
2023/04/23 23:12:29;;;;;;;2.07;1.87;;;;;;;10.95;56.35;98706.94;10329004;28;20753;-68
2023/04/23 23:17:31;;;;;;;2.10;2.00;;;;;;;11.15;56.85;98738.94;10327946;28;20406;-67
2023/04/23 23:22:33;;;;;;;2.17;2.00;;;;;;;11.45;56.66;98763.28;10327949;28;20276;-68
2023/04/23 23:27:35;;;;;;;2.90;1.97;;;;;;;11.48;55.88;98748.66;10328795;28;20236;-68